createdAt,value
2023-04-19T00:04:12.902Z,52.80
2023-04-19T00:09:18.592Z,53.15
2023-04-19T00:14:22.136Z,53.36
2023-04-19T00:19:24.798Z,53.66
2023-04-19T00:24:26.795Z,53.79
2023-04-19T00:29:29.055Z,54.45
2023-04-19T00:34:31.272Z,55.18
2023-04-19T00:39:33.305Z,55.48
2023-04-19T00:44:40.208Z,56.06
2023-04-19T00:49:42.548Z,56.73
2023-04-19T00:54:45.945Z,57.01
2023-04-19T00:59:48.843Z,57.76
2023-04-19T01:04:58.488Z,57.70
2023-04-19T01:10:00.760Z,57.99
2023-04-19T01:15:02.995Z,58.00
2023-04-19T01:20:08.804Z,58.32
2023-04-19T01:25:11.741Z,58.35
2023-04-19T01:30:14.069Z,58.29
2023-04-19T01:35:16.137Z,58.50
2023-04-19T01:40:22.073Z,58.57
2023-04-19T01:45:24.209Z,58.51
2023-04-19T01:50:28.000Z,57.99
2023-04-19T01:55:30.941Z,58.01
2023-04-19T02:00:32.984Z,57.34
2023-04-19T02:05:40.054Z,56.27
2023-04-19T02:10:43.182Z,56.31
2023-04-19T02:15:45.537Z,56.82
2023-04-19T02:20:47.961Z,56.65
2023-04-19T02:25:55.089Z,56.77
2023-04-19T02:30:57.434Z,56.36
2023-04-19T02:35:59.793Z,56.44
2023-04-19T02:41:05.223Z,56.87
2023-04-19T02:46:08.119Z,56.70
2023-04-19T02:51:16.560Z,57.02
2023-04-19T02:56:19.022Z,57.64
2023-04-19T03:01:21.594Z,58.23
2023-04-19T03:06:23.888Z,58.64
2023-04-19T03:11:28.204Z,57.72
2023-04-19T03:16:30.496Z,57.48
2023-04-19T03:21:33.213Z,57.96
2023-04-19T03:26:35.856Z,58.49
2023-04-19T03:31:38.622Z,58.19
2023-04-19T03:36:41.856Z,57.45
2023-04-19T03:41:44.257Z,56.94
2023-04-19T03:46:56.047Z,57.39
2023-04-19T03:52:02.056Z,57.97
2023-04-19T03:57:04.674Z,58.53
2023-04-19T04:02:08.075Z,59.11
2023-04-19T04:07:10.789Z,59.28
2023-04-19T04:12:13.386Z,59.46
2023-04-19T04:17:16.059Z,59.89
2023-04-19T04:22:18.150Z,60.77
2023-04-19T04:27:22.096Z,61.32
2023-04-19T04:32:27.958Z,61.84
2023-04-19T04:37:35.294Z,62.10
2023-04-19T04:42:38.000Z,61.66
2023-04-19T04:47:41.134Z,60.51
2023-04-19T04:52:43.171Z,60.58
2023-04-19T04:57:53.206Z,60.94
2023-04-19T05:03:13.973Z,60.54
2023-04-19T05:08:22.730Z,60.94
2023-04-19T05:13:25.517Z,60.74
2023-04-19T05:18:27.694Z,60.57
2023-04-19T05:23:31.720Z,60.82
2023-04-19T05:28:34.329Z,62.03
2023-04-19T05:33:43.787Z,62.74
2023-04-19T05:38:46.129Z,62.73
2023-04-19T05:43:49.004Z,62.52
2023-04-19T05:48:51.453Z,62.80
2023-04-19T05:54:02.464Z,62.73
2023-04-19T05:59:05.122Z,62.55
2023-04-19T06:04:08.005Z,62.70
2023-04-19T06:09:10.530Z,63.17
2023-04-19T06:14:15.796Z,64.22
2023-04-19T06:19:19.310Z,63.58
2023-04-19T06:24:21.391Z,63.77
2023-04-19T06:29:24.491Z,63.59
2023-04-19T06:34:26.649Z,63.53
2023-04-19T06:39:28.860Z,63.37
2023-04-19T06:44:31.021Z,63.13
2023-04-19T06:49:33.053Z,63.31
2023-04-19T06:54:35.143Z,63.28
2023-04-19T06:59:39.998Z,62.67
2023-04-19T07:04:42.600Z,63.11
2023-04-19T07:09:44.861Z,62.66
2023-04-19T07:14:47.695Z,62.22
2023-04-19T07:19:49.830Z,62.76
2023-04-19T07:24:53.174Z,62.01
2023-04-19T07:29:57.852Z,61.85
2023-04-19T07:35:00.162Z,60.97
2023-04-19T07:40:02.310Z,61.09
2023-04-19T07:45:05.969Z,59.16
2023-04-19T07:50:08.851Z,58.77
2023-04-19T07:55:11.151Z,57.45
2023-04-19T08:00:13.807Z,56.75
2023-04-19T08:05:19.184Z,55.63
2023-04-19T08:10:22.449Z,53.58
2023-04-19T08:16:03.747Z,54.67
2023-04-19T08:20:47.777Z,52.30
2023-04-19T08:25:50.972Z,51.89
2023-04-19T08:30:53.099Z,51.95
2023-04-19T08:35:55.250Z,50.90
2023-04-19T08:40:57.470Z,49.83
2023-04-19T08:45:59.615Z,49.13
2023-04-19T08:51:05.384Z,46.87
2023-04-19T08:56:18.137Z,42.89
2023-04-19T09:01:35.461Z,42.76
2023-04-19T09:06:39.655Z,37.21
2023-04-19T09:11:42.209Z,36.30
2023-04-19T09:16:45.027Z,35.57
2023-04-19T09:21:47.709Z,34.69
2023-04-19T09:26:55.183Z,34.01
2023-04-19T09:31:59.188Z,33.15
2023-04-19T09:37:27.601Z,33.36
2023-04-19T09:43:08.698Z,32.51
2023-04-19T09:48:16.873Z,31.12
2023-04-19T09:53:19.971Z,29.45
2023-04-19T09:58:22.498Z,28.59
2023-04-19T10:03:27.132Z,27.91
2023-04-19T10:08:29.709Z,28.38
2023-04-19T10:13:32.185Z,27.68
2023-04-19T10:18:34.362Z,27.22
2023-04-19T10:23:37.548Z,27.19
2023-04-19T10:28:39.604Z,25.92
2023-04-19T10:33:42.616Z,25.65
2023-04-19T10:38:48.304Z,26.07
2023-04-19T10:43:56.724Z,25.87
2023-04-19T10:49:00.217Z,25.95
2023-04-19T10:54:03.654Z,26.49
2023-04-19T10:59:08.568Z,25.79
2023-04-19T11:04:14.728Z,25.63
2023-04-19T11:09:31.586Z,27.73
2023-04-19T11:14:36.813Z,32.90
2023-04-19T11:19:39.032Z,32.66
2023-04-19T11:24:51.328Z,26.16
2023-04-19T11:29:53.527Z,27.55
2023-04-19T11:34:56.461Z,25.82
2023-04-19T11:39:58.709Z,27.09
2023-04-19T11:45:00.866Z,27.87
2023-04-19T11:50:31.565Z,28.46
2023-04-19T11:55:33.700Z,28.19
2023-04-19T12:00:35.798Z,27.71
2023-04-19T12:05:38.264Z,28.54
2023-04-19T12:10:56.276Z,28.25
2023-04-19T12:16:00.710Z,30.41
2023-04-19T12:21:04.295Z,29.74
2023-04-19T12:26:06.395Z,29.07
2023-04-19T12:31:09.883Z,29.54
2023-04-19T12:36:16.171Z,28.54
2023-04-19T12:41:18.301Z,28.63
2023-04-19T12:46:21.806Z,29.09
2023-04-19T12:51:23.980Z,29.19
2023-04-19T12:56:26.403Z,29.44
2023-04-19T13:01:28.467Z,29.64
2023-04-19T13:06:31.596Z,29.11
2023-04-19T13:11:33.695Z,28.55
2023-04-19T13:16:36.710Z,29.17
2023-04-19T13:21:38.709Z,28.83
2023-04-19T13:26:40.957Z,28.62
2023-04-19T13:31:47.177Z,29.17
2023-04-19T13:36:50.102Z,27.94
2023-04-19T13:41:52.309Z,29.53
2023-04-19T13:46:54.518Z,29.08
2023-04-19T13:51:56.701Z,27.64
2023-04-19T13:56:58.995Z,27.68
2023-04-19T14:02:04.237Z,27.61
2023-04-19T14:07:06.172Z,25.97
2023-04-19T14:12:09.413Z,26.90
2023-04-19T14:17:11.894Z,26.28
2023-04-19T14:22:13.764Z,26.50
2023-04-19T14:27:15.835Z,26.57
2023-04-19T14:32:25.857Z,26.39
2023-04-19T14:37:29.117Z,26.89
2023-04-19T14:42:31.507Z,25.67
2023-04-19T14:47:34.300Z,26.47
2023-04-19T14:52:36.579Z,25.47
2023-04-19T14:57:38.572Z,25.71
2023-04-19T15:02:40.734Z,26.09
2023-04-19T15:07:42.993Z,26.02
2023-04-19T15:12:45.119Z,25.41
2023-04-19T15:17:47.077Z,24.41
2023-04-19T15:22:49.026Z,25.58
2023-04-19T15:27:51.305Z,25.13
2023-04-19T15:32:53.633Z,23.38
2023-04-19T15:37:55.678Z,23.69
2023-04-19T15:42:57.709Z,23.89
2023-04-19T15:47:59.880Z,24.28
2023-04-19T15:53:02.091Z,23.28
2023-04-19T15:58:05.296Z,23.06
2023-04-19T16:03:08.695Z,23.23
2023-04-19T16:08:17.578Z,23.61
2023-04-19T16:13:19.755Z,24.33
2023-04-19T16:18:21.848Z,23.32
2023-04-19T16:23:24.798Z,23.06
2023-04-19T16:28:26.829Z,24.59
2023-04-19T16:33:28.914Z,24.04
2023-04-19T16:38:31.043Z,24.68
2023-04-19T16:43:33.568Z,24.64
2023-04-19T16:48:35.962Z,24.14
2023-04-19T16:53:38.037Z,24.18
2023-04-19T16:58:41.857Z,23.62
2023-04-19T17:03:45.292Z,23.35
2023-04-19T17:08:47.674Z,23.78
2023-04-19T17:13:50.006Z,23.93
2023-04-19T17:18:56.386Z,25.20
2023-04-19T17:23:58.585Z,24.51
2023-04-19T17:29:02.026Z,24.79
2023-04-19T17:34:04.274Z,24.42
2023-04-19T17:39:08.551Z,24.63
2023-04-19T17:44:12.893Z,24.57
2023-04-19T17:49:17.533Z,24.32
2023-04-19T17:54:20.720Z,24.87
2023-04-19T17:59:22.891Z,24.04
2023-04-19T18:04:25.233Z,24.68
2023-04-19T18:09:27.527Z,25.47
2023-04-19T18:14:29.860Z,24.75
2023-04-19T18:19:32.012Z,25.27
2023-04-19T18:24:34.071Z,26.62
2023-04-19T18:29:36.002Z,28.30
2023-04-19T18:34:38.144Z,28.18
2023-04-19T18:39:40.173Z,29.83
2023-04-19T18:50:02.670Z,29.64
2023-04-19T18:55:07.063Z,29.97
2023-04-19T19:00:12.450Z,30.71
2023-04-19T19:05:16.225Z,30.64
2023-04-19T19:10:21.880Z,30.63
2023-04-19T19:15:25.205Z,32.67
2023-04-19T19:20:27.355Z,31.67
2023-04-19T19:25:29.457Z,32.25
2023-04-19T19:30:34.028Z,31.91
2023-04-19T19:35:36.047Z,31.28
2023-04-19T19:41:04.180Z,32.29
2023-04-19T19:46:01.922Z,32.23
2023-04-19T19:51:29.109Z,32.72
2023-04-19T19:56:27.917Z,32.28
2023-04-19T20:01:31.811Z,32.56
2023-04-19T20:11:38.960Z,33.47
2023-04-19T20:16:41.153Z,33.52
2023-04-19T20:21:43.581Z,33.51
2023-04-19T20:26:46.603Z,33.52
2023-04-19T20:31:49.325Z,33.55
2023-04-19T20:36:51.800Z,33.30
2023-04-19T20:41:54.228Z,33.45
2023-04-19T20:46:56.775Z,34.14
2023-04-19T20:51:59.332Z,33.91
2023-04-19T20:57:05.000Z,35.11
2023-04-19T21:02:07.216Z,34.88
2023-04-19T21:07:09.862Z,35.94
2023-04-19T21:12:12.408Z,36.34
2023-04-19T21:17:14.822Z,36.09
2023-04-19T21:22:16.855Z,37.20
2023-04-19T21:27:18.765Z,37.50
2023-04-19T21:32:22.504Z,36.70
2023-04-19T21:37:24.741Z,36.23
2023-04-19T21:42:26.809Z,36.01
2023-04-19T21:47:28.998Z,36.51
2023-04-19T21:52:31.345Z,36.33
2023-04-19T21:57:33.331Z,36.75
2023-04-19T22:02:36.400Z,36.69
2023-04-19T22:07:40.228Z,36.45
2023-04-19T22:12:55.173Z,37.21
2023-04-19T22:18:03.065Z,37.92
2023-04-19T22:23:05.641Z,37.98
2023-04-19T22:28:07.959Z,38.31
2023-04-19T22:33:10.281Z,38.73
2023-04-19T22:38:12.880Z,38.49
2023-04-19T22:43:15.091Z,38.65
2023-04-19T22:48:17.487Z,38.75
2023-04-19T22:53:19.817Z,39.15
2023-04-19T22:58:22.353Z,39.86
2023-04-19T23:03:24.517Z,40.10
2023-04-19T23:08:26.634Z,38.94
2023-04-19T23:13:28.880Z,40.05
2023-04-19T23:18:31.183Z,41.17
2023-04-19T23:23:42.386Z,42.04
2023-04-19T23:28:44.769Z,42.42
2023-04-19T23:33:46.709Z,42.33
2023-04-19T23:38:48.724Z,43.06
2023-04-19T23:43:50.853Z,43.16
2023-04-19T23:48:53.010Z,44.52
2023-04-19T23:53:55.180Z,44.45
2023-04-19T23:58:57.770Z,44.92
